sensor_id;sensor_type;location;lat;lon;timestamp;temperature;humidity
19483;DHT22;9882;51.166;6.992;2023-08-20T00:01:05;24.80;99.90
19483;DHT22;9882;51.166;6.992;2023-08-20T00:03:36;24.90;99.90
19483;DHT22;9882;51.166;6.992;2023-08-20T00:06:08;24.90;99.90
19483;DHT22;9882;51.166;6.992;2023-08-20T00:08:37;24.90;99.90
19483;DHT22;9882;51.166;6.992;2023-08-20T00:11:06;24.80;99.90
19483;DHT22;9882;51.166;6.992;2023-08-20T00:13:35;24.80;99.90
19483;DHT22;9882;51.166;6.992;2023-08-20T00:16:04;24.70;99.90
19483;DHT22;9882;51.166;6.992;2023-08-20T00:18:33;24.70;99.90
19483;DHT22;9882;51.166;6.992;2023-08-20T00:21:05;24.70;99.90
19483;DHT22;9882;51.166;6.992;2023-08-20T00:23:36;24.70;99.90
19483;DHT22;9882;51.166;6.992;2023-08-20T00:26:06;24.70;99.90
19483;DHT22;9882;51.166;6.992;2023-08-20T00:28:39;24.70;99.90
19483;DHT22;9882;51.166;6.992;2023-08-20T00:31:07;24.70;99.90
19483;DHT22;9882;51.166;6.992;2023-08-20T00:33:37;24.70;99.90
19483;DHT22;9882;51.166;6.992;2023-08-20T00:36:05;24.70;99.90
19483;DHT22;9882;51.166;6.992;2023-08-20T00:38:36;24.70;99.90
19483;DHT22;9882;51.166;6.992;2023-08-20T00:41:04;24.70;99.90
19483;DHT22;9882;51.166;6.992;2023-08-20T00:43:33;24.80;99.90
19483;DHT22;9882;51.166;6.992;2023-08-20T00:46:01;24.70;99.90
19483;DHT22;9882;51.166;6.992;2023-08-20T00:48:30;24.70;99.90
19483;DHT22;9882;51.166;6.992;2023-08-20T00:50:59;24.60;99.90
19483;DHT22;9882;51.166;6.992;2023-08-20T00:53:28;24.60;99.90
19483;DHT22;9882;51.166;6.992;2023-08-20T00:55:58;24.60;99.90
19483;DHT22;9882;51.166;6.992;2023-08-20T00:58:27;24.50;99.90
19483;DHT22;9882;51.166;6.992;2023-08-20T01:00:57;24.50;99.90
19483;DHT22;9882;51.166;6.992;2023-08-20T01:03:26;24.50;99.90
19483;DHT22;9882;51.166;6.992;2023-08-20T01:06:12;24.40;99.90
19483;DHT22;9882;51.166;6.992;2023-08-20T01:08:47;24.40;99.90
19483;DHT22;9882;51.166;6.992;2023-08-20T01:11:26;24.40;99.90
19483;DHT22;9882;51.166;6.992;2023-08-20T01:13:58;24.40;99.90
19483;DHT22;9882;51.166;6.992;2023-08-20T01:16:28;24.40;99.90
19483;DHT22;9882;51.166;6.992;2023-08-20T01:18:57;24.30;99.90
19483;DHT22;9882;51.166;6.992;2023-08-20T01:21:34;24.30;99.90
19483;DHT22;9882;51.166;6.992;2023-08-20T01:24:24;24.30;99.90
19483;DHT22;9882;51.166;6.992;2023-08-20T01:27:08;24.30;99.90
19483;DHT22;9882;51.166;6.992;2023-08-20T01:29:45;24.30;99.90
19483;DHT22;9882;51.166;6.992;2023-08-20T01:32:14;24.30;99.90
19483;DHT22;9882;51.166;6.992;2023-08-20T01:34:43;24.10;99.90
19483;DHT22;9882;51.166;6.992;2023-08-20T01:37:13;24.20;99.90
19483;DHT22;9882;51.166;6.992;2023-08-20T01:39:42;24.10;99.90
19483;DHT22;9882;51.166;6.992;2023-08-20T01:42:11;24.10;99.90
19483;DHT22;9882;51.166;6.992;2023-08-20T01:44:39;24.10;99.90
19483;DHT22;9882;51.166;6.992;2023-08-20T01:47:09;24.00;99.90
19483;DHT22;9882;51.166;6.992;2023-08-20T01:49:38;24.00;99.90
19483;DHT22;9882;51.166;6.992;2023-08-20T01:52:09;24.00;99.90
19483;DHT22;9882;51.166;6.992;2023-08-20T01:54:38;23.90;99.90
19483;DHT22;9882;51.166;6.992;2023-08-20T01:57:08;23.90;99.90
19483;DHT22;9882;51.166;6.992;2023-08-20T01:59:41;23.90;99.90
19483;DHT22;9882;51.166;6.992;2023-08-20T02:02:22;23.90;99.90
19483;DHT22;9882;51.166;6.992;2023-08-20T02:04:51;23.90;99.90
19483;DHT22;9882;51.166;6.992;2023-08-20T02:07:20;23.80;99.90
19483;DHT22;9882;51.166;6.992;2023-08-20T02:09:48;23.80;99.90
19483;DHT22;9882;51.166;6.992;2023-08-20T02:12:17;23.90;99.90
19483;DHT22;9882;51.166;6.992;2023-08-20T02:14:46;23.80;99.90
19483;DHT22;9882;51.166;6.992;2023-08-20T02:17:14;23.80;99.90
19483;DHT22;9882;51.166;6.992;2023-08-20T02:19:45;23.80;99.90
19483;DHT22;9882;51.166;6.992;2023-08-20T02:22:14;23.80;99.90
19483;DHT22;9882;51.166;6.992;2023-08-20T02:24:42;23.80;99.90
19483;DHT22;9882;51.166;6.992;2023-08-20T02:27:11;23.80;99.90
19483;DHT22;9882;51.166;6.992;2023-08-20T02:29:39;23.70;99.90
19483;DHT22;9882;51.166;6.992;2023-08-20T02:32:08;23.70;99.90
19483;DHT22;9882;51.166;6.992;2023-08-20T02:34:37;23.70;99.90
19483;DHT22;9882;51.166;6.992;2023-08-20T02:37:07;23.70;99.90
19483;DHT22;9882;51.166;6.992;2023-08-20T02:39:35;23.70;99.90
19483;DHT22;9882;51.166;6.992;2023-08-20T02:42:04;23.70;99.90
19483;DHT22;9882;51.166;6.992;2023-08-20T02:44:33;23.70;99.90
19483;DHT22;9882;51.166;6.992;2023-08-20T02:47:02;23.60;99.90
19483;DHT22;9882;51.166;6.992;2023-08-20T02:49:30;23.60;99.90
19483;DHT22;9882;51.166;6.992;2023-08-20T02:51:59;23.60;99.90
19483;DHT22;9882;51.166;6.992;2023-08-20T02:54:29;23.60;99.90
19483;DHT22;9882;51.166;6.992;2023-08-20T02:56:59;23.60;99.90
19483;DHT22;9882;51.166;6.992;2023-08-20T02:59:28;23.60;99.90
19483;DHT22;9882;51.166;6.992;2023-08-20T03:01:56;23.60;99.90
19483;DHT22;9882;51.166;6.992;2023-08-20T03:04:25;23.60;99.90
19483;DHT22;9882;51.166;6.992;2023-08-20T03:06:53;23.60;99.90
19483;DHT22;9882;51.166;6.992;2023-08-20T03:09:22;23.50;99.90
19483;DHT22;9882;51.166;6.992;2023-08-20T03:11:52;23.50;99.90
19483;DHT22;9882;51.166;6.992;2023-08-20T03:14:21;23.50;99.90
19483;DHT22;9882;51.166;6.992;2023-08-20T03:16:49;23.50;99.90
19483;DHT22;9882;51.166;6.992;2023-08-20T03:19:18;23.50;99.90
19483;DHT22;9882;51.166;6.992;2023-08-20T03:21:47;23.40;99.90
19483;DHT22;9882;51.166;6.992;2023-08-20T03:24:15;23.40;99.90
19483;DHT22;9882;51.166;6.992;2023-08-20T03:26:44;23.40;99.90
19483;DHT22;9882;51.166;6.992;2023-08-20T03:29:15;23.40;99.90
19483;DHT22;9882;51.166;6.992;2023-08-20T03:31:43;23.40;99.90
19483;DHT22;9882;51.166;6.992;2023-08-20T03:34:13;23.30;99.90
19483;DHT22;9882;51.166;6.992;2023-08-20T03:36:43;23.30;99.90
19483;DHT22;9882;51.166;6.992;2023-08-20T03:39:12;23.30;99.90
19483;DHT22;9882;51.166;6.992;2023-08-20T03:41:41;23.30;99.90
19483;DHT22;9882;51.166;6.992;2023-08-20T03:44:10;23.30;99.90
19483;DHT22;9882;51.166;6.992;2023-08-20T03:46:39;23.20;99.90
19483;DHT22;9882;51.166;6.992;2023-08-20T03:49:08;23.10;99.90
19483;DHT22;9882;51.166;6.992;2023-08-20T03:51:39;23.20;99.90
19483;DHT22;9882;51.166;6.992;2023-08-20T03:54:08;23.00;99.90
19483;DHT22;9882;51.166;6.992;2023-08-20T03:56:39;23.00;99.90
19483;DHT22;9882;51.166;6.992;2023-08-20T03:59:08;22.80;99.90
19483;DHT22;9882;51.166;6.992;2023-08-20T04:01:41;22.80;99.90
19483;DHT22;9882;51.166;6.992;2023-08-20T04:04:10;22.90;99.90
19483;DHT22;9882;51.166;6.992;2023-08-20T04:06:38;23.00;99.90
19483;DHT22;9882;51.166;6.992;2023-08-20T04:09:07;23.00;99.90
19483;DHT22;9882;51.166;6.992;2023-08-20T04:11:36;23.10;99.90
19483;DHT22;9882;51.166;6.992;2023-08-20T04:14:05;23.10;99.90
19483;DHT22;9882;51.166;6.992;2023-08-20T04:16:33;23.10;99.90
19483;DHT22;9882;51.166;6.992;2023-08-20T04:19:03;23.10;99.90
19483;DHT22;9882;51.166;6.992;2023-08-20T04:21:32;23.10;99.90
19483;DHT22;9882;51.166;6.992;2023-08-20T04:24:01;23.10;99.90
19483;DHT22;9882;51.166;6.992;2023-08-20T04:26:29;23.10;99.90
19483;DHT22;9882;51.166;6.992;2023-08-20T04:28:58;23.00;99.90
19483;DHT22;9882;51.166;6.992;2023-08-20T04:31:27;23.00;99.90
19483;DHT22;9882;51.166;6.992;2023-08-20T04:34:02;23.00;99.90
19483;DHT22;9882;51.166;6.992;2023-08-20T04:36:39;23.00;99.90
19483;DHT22;9882;51.166;6.992;2023-08-20T04:39:08;23.00;99.90
19483;DHT22;9882;51.166;6.992;2023-08-20T04:41:40;23.00;99.90
19483;DHT22;9882;51.166;6.992;2023-08-20T04:44:13;23.00;99.90
19483;DHT22;9882;51.166;6.992;2023-08-20T04:46:43;23.00;99.90
19483;DHT22;9882;51.166;6.992;2023-08-20T04:49:16;22.90;99.90
19483;DHT22;9882;51.166;6.992;2023-08-20T04:51:45;22.90;99.90
19483;DHT22;9882;51.166;6.992;2023-08-20T04:54:13;23.10;99.90
19483;DHT22;9882;51.166;6.992;2023-08-20T04:56:42;22.90;99.90
19483;DHT22;9882;51.166;6.992;2023-08-20T04:59:13;22.90;99.90
19483;DHT22;9882;51.166;6.992;2023-08-20T05:01:51;22.90;99.90
19483;DHT22;9882;51.166;6.992;2023-08-20T05:04:35;22.90;99.90
19483;DHT22;9882;51.166;6.992;2023-08-20T05:07:03;22.80;99.90
19483;DHT22;9882;51.166;6.992;2023-08-20T05:09:33;22.80;99.90
19483;DHT22;9882;51.166;6.992;2023-08-20T05:12:02;22.80;99.90
19483;DHT22;9882;51.166;6.992;2023-08-20T05:14:30;22.50;99.90
19483;DHT22;9882;51.166;6.992;2023-08-20T05:16:59;22.60;99.90
19483;DHT22;9882;51.166;6.992;2023-08-20T05:19:28;22.70;99.90
19483;DHT22;9882;51.166;6.992;2023-08-20T05:21:59;22.70;99.90
19483;DHT22;9882;51.166;6.992;2023-08-20T05:24:31;22.70;99.90
19483;DHT22;9882;51.166;6.992;2023-08-20T05:27:08;22.80;99.90
19483;DHT22;9882;51.166;6.992;2023-08-20T05:29:44;22.80;99.90
19483;DHT22;9882;51.166;6.992;2023-08-20T05:35:18;22.70;99.90
19483;DHT22;9882;51.166;6.992;2023-08-20T05:37:50;22.80;99.90
19483;DHT22;9882;51.166;6.992;2023-08-20T05:40:19;22.70;99.90
19483;DHT22;9882;51.166;6.992;2023-08-20T05:42:49;22.70;99.90
19483;DHT22;9882;51.166;6.992;2023-08-20T05:45:18;22.70;99.90
19483;DHT22;9882;51.166;6.992;2023-08-20T05:47:48;22.70;99.90
19483;DHT22;9882;51.166;6.992;2023-08-20T05:50:17;22.70;99.90
19483;DHT22;9882;51.166;6.992;2023-08-20T05:52:45;22.70;99.90
19483;DHT22;9882;51.166;6.992;2023-08-20T05:55:16;22.70;99.90
19483;DHT22;9882;51.166;6.992;2023-08-20T05:57:46;22.70;99.90
19483;DHT22;9882;51.166;6.992;2023-08-20T06:00:15;22.70;99.90
19483;DHT22;9882;51.166;6.992;2023-08-20T06:02:47;22.70;99.90
19483;DHT22;9882;51.166;6.992;2023-08-20T06:05:19;22.70;99.90
19483;DHT22;9882;51.166;6.992;2023-08-20T06:07:47;22.70;99.90
19483;DHT22;9882;51.166;6.992;2023-08-20T06:10:19;22.70;99.90
19483;DHT22;9882;51.166;6.992;2023-08-20T06:12:51;22.70;99.90
19483;DHT22;9882;51.166;6.992;2023-08-20T06:15:19;22.70;99.90
19483;DHT22;9882;51.166;6.992;2023-08-20T06:17:48;22.70;99.90
19483;DHT22;9882;51.166;6.992;2023-08-20T06:20:17;22.70;99.90
19483;DHT22;9882;51.166;6.992;2023-08-20T06:22:47;22.70;99.90
19483;DHT22;9882;51.166;6.992;2023-08-20T06:25:19;22.40;99.90
19483;DHT22;9882;51.166;6.992;2023-08-20T06:27:48;22.40;99.90
19483;DHT22;9882;51.166;6.992;2023-08-20T06:30:17;22.20;99.90
19483;DHT22;9882;51.166;6.992;2023-08-20T06:32:45;22.20;99.90
19483;DHT22;9882;51.166;6.992;2023-08-20T06:35:14;22.20;99.90
19483;DHT22;9882;51.166;6.992;2023-08-20T06:37:44;22.30;99.90
19483;DHT22;9882;51.166;6.992;2023-08-20T06:40:13;22.30;99.90
19483;DHT22;9882;51.166;6.992;2023-08-20T06:42:44;22.50;99.90
19483;DHT22;9882;51.166;6.992;2023-08-20T06:45:13;22.40;99.90
19483;DHT22;9882;51.166;6.992;2023-08-20T06:47:41;22.50;99.90
19483;DHT22;9882;51.166;6.992;2023-08-20T06:50:10;22.50;99.90
19483;DHT22;9882;51.166;6.992;2023-08-20T06:52:42;22.50;99.90
19483;DHT22;9882;51.166;6.992;2023-08-20T06:55:15;22.50;99.90
19483;DHT22;9882;51.166;6.992;2023-08-20T06:57:45;22.50;99.90
19483;DHT22;9882;51.166;6.992;2023-08-20T07:00:15;22.60;99.90
19483;DHT22;9882;51.166;6.992;2023-08-20T07:02:43;22.50;99.90
19483;DHT22;9882;51.166;6.992;2023-08-20T07:05:13;22.50;99.90
19483;DHT22;9882;51.166;6.992;2023-08-20T07:07:45;22.40;99.90
19483;DHT22;9882;51.166;6.992;2023-08-20T07:10:14;22.40;99.90
19483;DHT22;9882;51.166;6.992;2023-08-20T07:12:43;22.50;99.90
19483;DHT22;9882;51.166;6.992;2023-08-20T07:15:15;22.50;99.90
19483;DHT22;9882;51.166;6.992;2023-08-20T07:17:43;22.60;99.90
19483;DHT22;9882;51.166;6.992;2023-08-20T07:20:13;22.50;99.90
19483;DHT22;9882;51.166;6.992;2023-08-20T07:22:42;22.50;99.90
19483;DHT22;9882;51.166;6.992;2023-08-20T07:25:12;22.40;99.90
19483;DHT22;9882;51.166;6.992;2023-08-20T07:27:40;22.40;99.90
19483;DHT22;9882;51.166;6.992;2023-08-20T07:30:11;22.30;99.90
19483;DHT22;9882;51.166;6.992;2023-08-20T07:32:41;22.50;99.90
19483;DHT22;9882;51.166;6.992;2023-08-20T07:35:10;22.30;99.90
19483;DHT22;9882;51.166;6.992;2023-08-20T07:37:39;22.40;99.90
19483;DHT22;9882;51.166;6.992;2023-08-20T07:40:08;22.30;99.90
19483;DHT22;9882;51.166;6.992;2023-08-20T07:42:42;22.30;99.90
19483;DHT22;9882;51.166;6.992;2023-08-20T07:45:13;22.40;99.90
19483;DHT22;9882;51.166;6.992;2023-08-20T07:47:44;22.40;99.90
19483;DHT22;9882;51.166;6.992;2023-08-20T07:50:13;22.40;99.90
19483;DHT22;9882;51.166;6.992;2023-08-20T07:52:42;22.40;99.90
19483;DHT22;9882;51.166;6.992;2023-08-20T07:55:11;22.50;99.90
19483;DHT22;9882;51.166;6.992;2023-08-20T07:57:40;22.50;99.90
19483;DHT22;9882;51.166;6.992;2023-08-20T08:00:10;22.60;99.90
19483;DHT22;9882;51.166;6.992;2023-08-20T08:02:40;22.70;99.90
19483;DHT22;9882;51.166;6.992;2023-08-20T08:05:10;22.70;99.90
19483;DHT22;9882;51.166;6.992;2023-08-20T08:07:44;22.70;99.90
19483;DHT22;9882;51.166;6.992;2023-08-20T08:10:13;22.80;99.90
19483;DHT22;9882;51.166;6.992;2023-08-20T08:12:43;22.80;99.90
19483;DHT22;9882;51.166;6.992;2023-08-20T08:15:13;22.80;99.90
19483;DHT22;9882;51.166;6.992;2023-08-20T08:17:43;22.80;99.90
19483;DHT22;9882;51.166;6.992;2023-08-20T08:20:17;22.90;99.90
19483;DHT22;9882;51.166;6.992;2023-08-20T08:22:45;22.90;99.90
19483;DHT22;9882;51.166;6.992;2023-08-20T08:25:14;22.90;99.90
19483;DHT22;9882;51.166;6.992;2023-08-20T08:27:46;22.80;99.90
19483;DHT22;9882;51.166;6.992;2023-08-20T08:30:25;22.90;99.90
19483;DHT22;9882;51.166;6.992;2023-08-20T08:32:53;23.00;99.90
19483;DHT22;9882;51.166;6.992;2023-08-20T08:35:24;22.90;99.90
19483;DHT22;9882;51.166;6.992;2023-08-20T08:37:52;23.10;99.90
19483;DHT22;9882;51.166;6.992;2023-08-20T08:40:22;23.10;99.90
19483;DHT22;9882;51.166;6.992;2023-08-20T08:42:52;23.30;99.90
19483;DHT22;9882;51.166;6.992;2023-08-20T08:45:21;23.20;99.90
19483;DHT22;9882;51.166;6.992;2023-08-20T08:47:55;23.30;99.90
19483;DHT22;9882;51.166;6.992;2023-08-20T08:50:25;23.30;99.90
19483;DHT22;9882;51.166;6.992;2023-08-20T08:52:55;23.40;99.90
19483;DHT22;9882;51.166;6.992;2023-08-20T08:55:30;23.50;99.90
19483;DHT22;9882;51.166;6.992;2023-08-20T08:57:59;23.60;99.90
19483;DHT22;9882;51.166;6.992;2023-08-20T09:00:28;23.90;99.90
19483;DHT22;9882;51.166;6.992;2023-08-20T09:02:58;23.80;99.90
19483;DHT22;9882;51.166;6.992;2023-08-20T09:05:29;23.70;99.90
19483;DHT22;9882;51.166;6.992;2023-08-20T09:07:58;23.80;99.90
19483;DHT22;9882;51.166;6.992;2023-08-20T09:10:27;23.90;99.90
19483;DHT22;9882;51.166;6.992;2023-08-20T09:12:56;23.80;99.90
19483;DHT22;9882;51.166;6.992;2023-08-20T09:15:32;23.80;99.90
19483;DHT22;9882;51.166;6.992;2023-08-20T09:18:03;24.00;99.90
19483;DHT22;9882;51.166;6.992;2023-08-20T09:20:36;23.70;99.90
19483;DHT22;9882;51.166;6.992;2023-08-20T09:23:11;24.00;99.90
19483;DHT22;9882;51.166;6.992;2023-08-20T09:25:40;23.90;99.90
19483;DHT22;9882;51.166;6.992;2023-08-20T09:28:14;24.00;99.90
19483;DHT22;9882;51.166;6.992;2023-08-20T09:30:55;24.20;99.90
19483;DHT22;9882;51.166;6.992;2023-08-20T09:33:24;24.30;99.90
19483;DHT22;9882;51.166;6.992;2023-08-20T09:35:54;24.40;99.90
19483;DHT22;9882;51.166;6.992;2023-08-20T09:38:24;24.60;99.90
19483;DHT22;9882;51.166;6.992;2023-08-20T09:40:53;24.50;99.90
19483;DHT22;9882;51.166;6.992;2023-08-20T09:43:24;24.70;99.90
19483;DHT22;9882;51.166;6.992;2023-08-20T09:45:55;24.80;99.90
19483;DHT22;9882;51.166;6.992;2023-08-20T09:48:27;24.90;99.90
19483;DHT22;9882;51.166;6.992;2023-08-20T09:50:59;24.90;99.90
19483;DHT22;9882;51.166;6.992;2023-08-20T09:53:35;25.00;99.90
19483;DHT22;9882;51.166;6.992;2023-08-20T09:56:10;24.80;99.90
19483;DHT22;9882;51.166;6.992;2023-08-20T09:58:44;24.90;99.90
19483;DHT22;9882;51.166;6.992;2023-08-20T10:01:12;25.10;99.90
19483;DHT22;9882;51.166;6.992;2023-08-20T10:03:41;25.10;99.90
19483;DHT22;9882;51.166;6.992;2023-08-20T10:06:12;25.10;99.90
19483;DHT22;9882;51.166;6.992;2023-08-20T10:08:41;25.10;99.90
19483;DHT22;9882;51.166;6.992;2023-08-20T10:11:13;25.30;99.90
19483;DHT22;9882;51.166;6.992;2023-08-20T10:13:44;25.10;99.90
19483;DHT22;9882;51.166;6.992;2023-08-20T10:16:17;25.00;99.90
19483;DHT22;9882;51.166;6.992;2023-08-20T10:18:49;24.80;99.90
19483;DHT22;9882;51.166;6.992;2023-08-20T10:21:23;24.90;99.90
19483;DHT22;9882;51.166;6.992;2023-08-20T10:23:52;25.10;99.90
19483;DHT22;9882;51.166;6.992;2023-08-20T10:26:21;25.20;99.90
19483;DHT22;9882;51.166;6.992;2023-08-20T10:28:52;25.10;99.90
19483;DHT22;9882;51.166;6.992;2023-08-20T10:31:46;25.10;99.90
19483;DHT22;9882;51.166;6.992;2023-08-20T10:34:31;25.00;99.90
19483;DHT22;9882;51.166;6.992;2023-08-20T10:37:09;25.00;99.90
19483;DHT22;9882;51.166;6.992;2023-08-20T10:39:37;24.80;99.90
19483;DHT22;9882;51.166;6.992;2023-08-20T10:42:22;24.70;99.90
19483;DHT22;9882;51.166;6.992;2023-08-20T10:45:00;24.80;99.90
19483;DHT22;9882;51.166;6.992;2023-08-20T10:47:44;24.80;99.90
19483;DHT22;9882;51.166;6.992;2023-08-20T10:50:16;24.80;99.90
19483;DHT22;9882;51.166;6.992;2023-08-20T10:52:55;24.90;99.90
19483;DHT22;9882;51.166;6.992;2023-08-20T10:55:24;25.10;99.90
19483;DHT22;9882;51.166;6.992;2023-08-20T10:57:56;25.10;99.90
19483;DHT22;9882;51.166;6.992;2023-08-20T11:00:27;25.40;99.90
19483;DHT22;9882;51.166;6.992;2023-08-20T11:02:58;25.40;99.90
19483;DHT22;9882;51.166;6.992;2023-08-20T11:05:27;25.40;99.90
19483;DHT22;9882;51.166;6.992;2023-08-20T11:07:57;25.70;99.90
19483;DHT22;9882;51.166;6.992;2023-08-20T11:10:26;26.00;99.90
19483;DHT22;9882;51.166;6.992;2023-08-20T11:12:55;25.90;99.90
19483;DHT22;9882;51.166;6.992;2023-08-20T11:15:24;25.60;99.90
19483;DHT22;9882;51.166;6.992;2023-08-20T11:17:53;25.70;99.90
19483;DHT22;9882;51.166;6.992;2023-08-20T11:20:22;25.80;99.90
19483;DHT22;9882;51.166;6.992;2023-08-20T11:22:50;25.90;99.90
19483;DHT22;9882;51.166;6.992;2023-08-20T11:25:20;26.10;99.90
19483;DHT22;9882;51.166;6.992;2023-08-20T11:27:50;26.10;99.90
19483;DHT22;9882;51.166;6.992;2023-08-20T11:30:19;26.10;99.90
19483;DHT22;9882;51.166;6.992;2023-08-20T11:32:48;26.10;99.90
19483;DHT22;9882;51.166;6.992;2023-08-20T11:35:21;26.10;99.90
19483;DHT22;9882;51.166;6.992;2023-08-20T11:37:49;26.00;99.90
19483;DHT22;9882;51.166;6.992;2023-08-20T11:40:20;26.00;99.90
19483;DHT22;9882;51.166;6.992;2023-08-20T11:42:49;26.00;99.90
19483;DHT22;9882;51.166;6.992;2023-08-20T11:45:17;26.00;99.90
19483;DHT22;9882;51.166;6.992;2023-08-20T11:47:49;26.00;99.90
19483;DHT22;9882;51.166;6.992;2023-08-20T11:50:20;26.10;99.90
19483;DHT22;9882;51.166;6.992;2023-08-20T11:52:49;26.20;99.90
19483;DHT22;9882;51.166;6.992;2023-08-20T11:55:23;26.10;99.90
19483;DHT22;9882;51.166;6.992;2023-08-20T11:57:52;26.00;99.90
19483;DHT22;9882;51.166;6.992;2023-08-20T12:00:24;26.30;99.90
19483;DHT22;9882;51.166;6.992;2023-08-20T12:02:55;26.40;99.90
19483;DHT22;9882;51.166;6.992;2023-08-20T12:05:26;26.30;99.90
19483;DHT22;9882;51.166;6.992;2023-08-20T12:07:56;26.50;99.90
19483;DHT22;9882;51.166;6.992;2023-08-20T12:10:28;26.40;99.90
19483;DHT22;9882;51.166;6.992;2023-08-20T12:12:57;26.60;99.90
19483;DHT22;9882;51.166;6.992;2023-08-20T12:15:26;26.60;99.90
19483;DHT22;9882;51.166;6.992;2023-08-20T12:17:59;26.60;99.90
19483;DHT22;9882;51.166;6.992;2023-08-20T12:20:31;26.80;99.90
19483;DHT22;9882;51.166;6.992;2023-08-20T12:23:05;26.90;99.90
19483;DHT22;9882;51.166;6.992;2023-08-20T12:25:37;26.80;99.90
19483;DHT22;9882;51.166;6.992;2023-08-20T12:28:06;26.70;99.90
19483;DHT22;9882;51.166;6.992;2023-08-20T12:30:38;26.70;99.90
19483;DHT22;9882;51.166;6.992;2023-08-20T12:33:07;26.50;99.90
19483;DHT22;9882;51.166;6.992;2023-08-20T12:35:35;26.70;99.90
19483;DHT22;9882;51.166;6.992;2023-08-20T12:38:04;26.70;99.90
19483;DHT22;9882;51.166;6.992;2023-08-20T12:40:34;26.80;99.90
19483;DHT22;9882;51.166;6.992;2023-08-20T12:43:04;27.00;99.90
19483;DHT22;9882;51.166;6.992;2023-08-20T12:45:33;27.10;99.90
19483;DHT22;9882;51.166;6.992;2023-08-20T12:48:02;27.10;99.90
19483;DHT22;9882;51.166;6.992;2023-08-20T12:50:31;27.10;99.90
19483;DHT22;9882;51.166;6.992;2023-08-20T12:52:59;27.20;99.90
19483;DHT22;9882;51.166;6.992;2023-08-20T12:55:28;27.40;99.90
19483;DHT22;9882;51.166;6.992;2023-08-20T12:57:58;27.50;99.90
19483;DHT22;9882;51.166;6.992;2023-08-20T13:00:28;27.70;99.90
19483;DHT22;9882;51.166;6.992;2023-08-20T13:02:57;27.70;99.90
19483;DHT22;9882;51.166;6.992;2023-08-20T13:05:27;27.80;99.90
19483;DHT22;9882;51.166;6.992;2023-08-20T13:07:56;27.80;99.90
19483;DHT22;9882;51.166;6.992;2023-08-20T13:10:25;27.70;99.90
19483;DHT22;9882;51.166;6.992;2023-08-20T13:12:59;27.90;99.90
19483;DHT22;9882;51.166;6.992;2023-08-20T13:15:30;27.70;99.90
19483;DHT22;9882;51.166;6.992;2023-08-20T13:18:00;27.20;99.90
19483;DHT22;9882;51.166;6.992;2023-08-20T13:20:29;27.20;99.90
19483;DHT22;9882;51.166;6.992;2023-08-20T13:22:58;27.40;99.90
19483;DHT22;9882;51.166;6.992;2023-08-20T13:25:27;27.60;99.90
19483;DHT22;9882;51.166;6.992;2023-08-20T13:27:56;27.90;99.90
19483;DHT22;9882;51.166;6.992;2023-08-20T13:30:24;27.90;99.90
19483;DHT22;9882;51.166;6.992;2023-08-20T13:32:55;27.70;99.90
19483;DHT22;9882;51.166;6.992;2023-08-20T13:35:23;27.80;99.90
19483;DHT22;9882;51.166;6.992;2023-08-20T13:37:52;28.00;99.90
19483;DHT22;9882;51.166;6.992;2023-08-20T13:40:21;28.10;99.90
19483;DHT22;9882;51.166;6.992;2023-08-20T13:42:50;28.60;99.90
19483;DHT22;9882;51.166;6.992;2023-08-20T13:45:18;28.90;99.90
19483;DHT22;9882;51.166;6.992;2023-08-20T13:47:47;28.80;99.90
19483;DHT22;9882;51.166;6.992;2023-08-20T13:50:17;28.20;99.90
19483;DHT22;9882;51.166;6.992;2023-08-20T13:52:46;28.20;99.90
19483;DHT22;9882;51.166;6.992;2023-08-20T13:55:15;28.50;99.90
19483;DHT22;9882;51.166;6.992;2023-08-20T13:57:44;29.20;99.90
19483;DHT22;9882;51.166;6.992;2023-08-20T14:00:16;29.90;99.90
19483;DHT22;9882;51.166;6.992;2023-08-20T14:02:46;29.70;99.90
19483;DHT22;9882;51.166;6.992;2023-08-20T14:05:16;28.70;99.90
19483;DHT22;9882;51.166;6.992;2023-08-20T14:07:46;29.30;99.90
19483;DHT22;9882;51.166;6.992;2023-08-20T14:10:15;29.90;99.90
19483;DHT22;9882;51.166;6.992;2023-08-20T14:12:47;30.20;99.90
19483;DHT22;9882;51.166;6.992;2023-08-20T14:15:16;30.80;99.90
19483;DHT22;9882;51.166;6.992;2023-08-20T14:17:45;30.80;99.90
19483;DHT22;9882;51.166;6.992;2023-08-20T14:20:13;30.70;99.90
19483;DHT22;9882;51.166;6.992;2023-08-20T14:22:43;30.10;99.90
19483;DHT22;9882;51.166;6.992;2023-08-20T14:25:12;30.80;99.90
19483;DHT22;9882;51.166;6.992;2023-08-20T14:27:41;30.70;99.90
19483;DHT22;9882;51.166;6.992;2023-08-20T14:30:10;30.60;99.90
19483;DHT22;9882;51.166;6.992;2023-08-20T14:32:38;30.80;99.90
19483;DHT22;9882;51.166;6.992;2023-08-20T14:35:07;31.00;99.90
19483;DHT22;9882;51.166;6.992;2023-08-20T14:37:36;31.70;99.90
19483;DHT22;9882;51.166;6.992;2023-08-20T14:40:08;30.80;99.90
19483;DHT22;9882;51.166;6.992;2023-08-20T14:42:39;31.00;99.90
19483;DHT22;9882;51.166;6.992;2023-08-20T14:45:09;31.80;99.90
19483;DHT22;9882;51.166;6.992;2023-08-20T14:47:37;32.40;99.90
19483;DHT22;9882;51.166;6.992;2023-08-20T14:50:07;31.80;99.90
19483;DHT22;9882;51.166;6.992;2023-08-20T14:52:36;32.10;99.90
19483;DHT22;9882;51.166;6.992;2023-08-20T14:55:07;32.90;99.90
19483;DHT22;9882;51.166;6.992;2023-08-20T14:57:37;33.30;99.90
19483;DHT22;9882;51.166;6.992;2023-08-20T15:00:13;33.80;99.90
19483;DHT22;9882;51.166;6.992;2023-08-20T15:02:42;33.30;99.90
19483;DHT22;9882;51.166;6.992;2023-08-20T15:05:11;32.50;99.90
19483;DHT22;9882;51.166;6.992;2023-08-20T15:07:40;32.10;99.90
19483;DHT22;9882;51.166;6.992;2023-08-20T15:10:10;33.00;99.90
19483;DHT22;9882;51.166;6.992;2023-08-20T15:12:39;32.80;99.90
19483;DHT22;9882;51.166;6.992;2023-08-20T15:15:08;30.90;99.90
19483;DHT22;9882;51.166;6.992;2023-08-20T15:17:37;30.60;99.90
19483;DHT22;9882;51.166;6.992;2023-08-20T15:20:07;31.60;99.90
19483;DHT22;9882;51.166;6.992;2023-08-20T15:22:37;32.60;99.90
19483;DHT22;9882;51.166;6.992;2023-08-20T15:25:06;32.70;99.90
19483;DHT22;9882;51.166;6.992;2023-08-20T15:27:39;31.60;99.90
19483;DHT22;9882;51.166;6.992;2023-08-20T15:30:08;31.10;99.90
19483;DHT22;9882;51.166;6.992;2023-08-20T15:32:37;31.10;99.90
19483;DHT22;9882;51.166;6.992;2023-08-20T15:35:07;31.20;99.90
19483;DHT22;9882;51.166;6.992;2023-08-20T15:37:35;30.90;99.90
19483;DHT22;9882;51.166;6.992;2023-08-20T15:40:05;31.00;99.90
19483;DHT22;9882;51.166;6.992;2023-08-20T15:42:40;31.10;99.90
19483;DHT22;9882;51.166;6.992;2023-08-20T15:45:10;31.00;99.90
19483;DHT22;9882;51.166;6.992;2023-08-20T15:47:38;30.90;99.90
19483;DHT22;9882;51.166;6.992;2023-08-20T15:50:07;30.50;99.90
19483;DHT22;9882;51.166;6.992;2023-08-20T15:52:36;30.90;99.90
19483;DHT22;9882;51.166;6.992;2023-08-20T15:55:05;31.30;99.90
19483;DHT22;9882;51.166;6.992;2023-08-20T15:57:33;32.60;99.90
19483;DHT22;9882;51.166;6.992;2023-08-20T16:00:05;32.80;99.90
19483;DHT22;9882;51.166;6.992;2023-08-20T16:02:34;31.80;99.90
19483;DHT22;9882;51.166;6.992;2023-08-20T16:05:05;32.80;99.90
19483;DHT22;9882;51.166;6.992;2023-08-20T16:07:34;33.50;99.90